Time;durP1;ratioP1;P1;durP2;ratioP2;P2;SDS_P1;SDS_P2;PMS_P1;PMS_P2;Temp;Humidity;BMP_temperature;BMP_pressure;BME280_temperature;BME280_humidity;BME280_pressure;Samples;Min_cycle;Max_cycle;Signal;HPM_P1;HPM_P2
2021/08/02 00:00:56;;;;;;;25.10;15.05;;;;;;;24.02;68.31;98662.88;1749632;80;21646;-43
2021/08/02 00:03:37;;;;;;;23.98;16.02;;;;;;;24.07;68.36;98661.63;1763899;80;21076;-43
2021/08/02 00:06:05;;;;;;;22.02;15.88;;;;;;;24.10;68.38;98662.70;1756135;80;21199;-43
2021/08/02 00:08:32;;;;;;;22.80;16.48;;;;;;;24.13;68.38;98656.22;1749520;80;21547;-43
2021/08/02 00:11:00;;;;;;;24.20;15.10;;;;;;;24.16;68.39;98658.84;1770198;80;21012;-43
2021/08/02 00:13:32;;;;;;;25.97;14.58;;;;;;;24.18;68.19;98641.77;1759901;80;21002;-43
2021/08/02 00:16:03;;;;;;;21.62;14.87;;;;;;;24.31;68.10;98652.02;1768141;80;21005;-43
2021/08/02 00:18:31;;;;;;;21.52;14.53;;;;;;;24.36;67.87;98650.59;1755811;80;21519;-43
2021/08/02 00:21:04;;;;;;;20.35;15.03;;;;;;;24.38;67.70;98644.75;1762112;80;21004;-43
2021/08/02 00:23:30;;;;;;;20.80;15.32;;;;;;;24.39;67.53;98639.98;1763426;80;21067;-43
2021/08/02 00:26:00;;;;;;;17.45;14.58;;;;;;;24.36;67.46;98629.20;1750048;80;21076;-43
2021/08/02 00:28:30;;;;;;;21.00;14.60;;;;;;;24.39;67.36;98626.91;1766865;80;21001;-43
2021/08/02 00:30:56;;;;;;;18.37;14.78;;;;;;;24.43;67.19;98617.02;1769684;80;21139;-43
2021/08/02 00:33:23;;;;;;;19.00;14.15;;;;;;;24.47;67.06;98616.22;1771370;80;21491;-43
2021/08/02 00:36:33;;;;;;;19.73;15.68;;;;;;;24.46;66.93;98607.14;1758231;80;21016;-43
2021/08/02 00:39:19;;;;;;;21.17;14.95;;;;;;;24.43;66.95;98598.39;1752380;80;21013;-43
2021/08/02 00:42:13;;;;;;;23.27;14.20;;;;;;;24.36;67.28;98602.12;1720500;82;21029;-43
2021/08/02 00:45:20;;;;;;;18.73;13.45;;;;;;;24.33;67.55;98590.61;1764350;80;21136;-43
2021/08/02 00:47:56;;;;;;;19.48;14.33;;;;;;;24.33;67.73;98580.91;1764196;80;20993;-43
2021/08/02 00:50:26;;;;;;;19.65;14.55;;;;;;;24.26;67.85;98573.70;1770069;80;21543;-43
2021/08/02 00:53:03;;;;;;;22.37;14.75;;;;;;;24.16;67.86;98576.34;1765025;81;22075;-43
2021/08/02 00:55:35;;;;;;;20.20;13.70;;;;;;;24.13;67.83;98560.68;1690079;83;21035;-43
2021/08/02 00:58:07;;;;;;;16.10;12.70;;;;;;;24.12;67.76;98547.45;1680665;84;21839;-43
2021/08/02 01:00:35;;;;;;;19.20;13.62;;;;;;;24.18;67.64;98539.30;1674436;84;21069;-43
2021/08/02 01:03:08;;;;;;;21.42;14.45;;;;;;;24.19;67.62;98521.44;1705751;84;21073;-43
2021/08/02 01:05:37;;;;;;;19.60;13.93;;;;;;;24.23;67.76;98527.56;1699351;83;20958;-43
2021/08/02 01:08:22;;;;;;;17.87;14.15;;;;;;;24.28;67.76;98533.84;1681469;84;21748;-43
2021/08/02 01:10:55;;;;;;;19.02;12.68;;;;;;;24.33;67.63;98522.73;1708093;83;21138;-43
2021/08/02 01:13:26;;;;;;;18.65;12.50;;;;;;;24.37;67.51;98521.31;1699643;84;21026;-43
2021/08/02 01:15:54;;;;;;;19.77;12.78;;;;;;;24.46;67.07;98509.39;1759786;80;20990;-43
2021/08/02 01:18:23;;;;;;;20.10;13.93;;;;;;;24.50;66.62;98498.89;1763988;80;20990;-43
2021/08/02 01:20:54;;;;;;;17.45;12.90;;;;;;;24.52;66.31;98488.11;1767233;80;20994;-43
2021/08/02 01:23:22;;;;;;;17.95;13.13;;;;;;;24.51;66.14;98490.11;1773966;80;21817;-43
2021/08/02 01:25:59;;;;;;;19.77;14.93;;;;;;;24.49;66.09;98471.82;1764746;80;21575;-43
2021/08/02 01:28:33;;;;;;;14.83;13.00;;;;;;;24.44;66.07;98464.78;1766939;80;21064;-43
2021/08/02 01:31:03;;;;;;;18.32;13.03;;;;;;;24.40;66.18;98463.56;1762981;80;21041;-43
2021/08/02 01:33:32;;;;;;;16.82;13.62;;;;;;;24.41;66.21;98463.71;1772993;80;21068;-43
2021/08/02 01:36:06;;;;;;;16.35;13.50;;;;;;;24.42;66.34;98473.56;1770517;80;21135;-43
2021/08/02 01:38:34;;;;;;;18.10;14.00;;;;;;;24.40;66.41;98463.56;1769972;80;20938;-43
2021/08/02 01:41:04;;;;;;;21.12;14.85;;;;;;;24.39;66.44;98466.83;1773693;80;21082;-43
2021/08/02 01:43:33;;;;;;;15.10;13.50;;;;;;;24.36;66.57;98453.91;1764326;80;20949;-43
2021/08/02 01:46:12;;;;;;;16.73;12.82;;;;;;;24.35;66.58;98455.17;1757822;80;21034;-43
2021/08/02 01:49:09;;;;;;;16.37;13.38;;;;;;;24.39;66.59;98467.59;1758056;80;21836;-43
2021/08/02 01:51:49;;;;;;;16.35;13.22;;;;;;;24.40;66.62;98484.98;1767789;80;20957;-43
2021/08/02 01:54:47;;;;;;;17.02;13.58;;;;;;;24.31;66.90;98492.72;1769791;80;21024;-43
2021/08/02 01:57:25;;;;;;;16.17;13.58;;;;;;;24.25;67.11;98500.17;1773969;80;21053;-43
2021/08/02 02:00:10;;;;;;;16.70;12.47;;;;;;;24.18;67.43;98494.98;1768627;80;21081;-43
2021/08/02 02:03:04;;;;;;;16.90;13.45;;;;;;;24.17;67.58;98487.91;1765717;80;21135;-43
2021/08/02 02:05:38;;;;;;;16.12;13.80;;;;;;;24.19;67.69;98486.20;1778584;80;21034;-43
2021/08/02 02:08:22;;;;;;;16.80;13.78;;;;;;;24.19;67.83;98497.91;1774217;80;20993;-43
2021/08/02 02:10:58;;;;;;;17.52;14.05;;;;;;;24.19;67.77;98499.28;1775947;80;21064;-43
2021/08/02 02:13:40;;;;;;;14.68;13.18;;;;;;;24.19;67.69;98497.91;1763217;80;21048;-43
2021/08/02 02:16:07;;;;;;;18.10;13.22;;;;;;;24.19;67.75;98495.13;1780916;80;21140;-43
2021/08/02 02:18:37;;;;;;;17.92;12.98;;;;;;;24.23;67.62;98506.80;1774643;80;21049;-43
2021/08/02 02:21:04;;;;;;;16.32;13.10;;;;;;;24.21;67.58;98506.48;1780236;80;20894;-43
2021/08/02 02:23:32;;;;;;;17.00;13.70;;;;;;;24.18;67.55;98505.44;1777475;80;20985;-43
2021/08/02 02:25:59;;;;;;;21.30;13.95;;;;;;;24.14;67.67;98515.14;1780161;80;21108;-43
2021/08/02 02:28:25;;;;;;;16.95;12.93;;;;;;;24.12;67.67;98521.75;1775396;80;21143;-43
2021/08/02 02:30:56;;;;;;;17.77;12.78;;;;;;;24.13;67.79;98521.91;1773092;80;21091;-43
2021/08/02 02:33:23;;;;;;;20.40;12.07;;;;;;;24.20;67.63;98528.52;1715009;83;21584;-43
2021/08/02 02:35:51;;;;;;;14.73;12.37;;;;;;;24.21;67.44;98529.41;1686978;83;21116;-43
2021/08/02 02:38:19;;;;;;;15.15;13.18;;;;;;;24.16;67.52;98533.42;1752414;80;21619;-43
2021/08/02 02:40:49;;;;;;;19.17;13.68;;;;;;;24.14;67.61;98533.91;1762159;80;20957;-43
2021/08/02 02:43:16;;;;;;;17.50;12.05;;;;;;;24.14;67.62;98529.75;1762239;80;21585;-43
2021/08/02 02:45:44;;;;;;;23.07;13.78;;;;;;;24.15;67.66;98536.83;1729575;80;21542;-43
2021/08/02 02:48:12;;;;;;;21.12;12.88;;;;;;;24.23;67.39;98552.50;1780783;80;21040;-43
2021/08/02 02:50:39;;;;;;;19.23;13.48;;;;;;;24.22;67.21;98560.65;1780921;80;21024;-43
2021/08/02 02:53:06;;;;;;;22.30;14.38;;;;;;;24.11;67.56;98581.91;1781354;80;21128;-43
2021/08/02 02:55:33;;;;;;;20.68;13.03;;;;;;;24.02;67.94;98595.80;1781342;80;20953;-43
2021/08/02 02:58:01;;;;;;;19.15;13.20;;;;;;;23.98;68.23;98591.67;1711636;83;20996;-43
2021/08/02 03:00:29;;;;;;;15.13;12.68;;;;;;;23.98;68.36;98579.21;1775191;80;21036;-43
2021/08/02 03:02:58;;;;;;;17.32;12.85;;;;;;;23.93;68.51;98561.85;1780182;80;21088;-43
2021/08/02 03:05:26;;;;;;;17.80;13.10;;;;;;;23.92;68.54;98558.93;1760264;80;21135;-43
2021/08/02 03:07:57;;;;;;;;;;;;;;;23.88;68.67;98564.64;1780155;80;22244;-43
2021/08/02 03:10:26;;;;;;;16.02;11.70;;;;;;;23.83;68.91;98561.89;1778025;80;20422;-43
2021/08/02 03:12:54;;;;;;;14.13;11.90;;;;;;;23.80;69.10;98559.31;1751226;80;21041;-43
2021/08/02 03:15:21;;;;;;;16.12;12.28;;;;;;;23.85;69.20;98550.98;1781619;80;21017;-43
2021/08/02 03:17:48;;;;;;;15.38;11.97;;;;;;;23.83;69.04;98550.05;1756581;80;21118;-43
2021/08/02 03:20:15;;;;;;;14.87;11.48;;;;;;;23.81;69.07;98545.63;1778487;80;21569;-43
2021/08/02 03:22:54;;;;;;;16.02;10.10;;;;;;;23.79;68.92;98543.31;1781971;80;20976;-43
2021/08/02 03:25:41;;;;;;;16.55;9.95;;;;;;;23.80;68.54;98537.94;1779827;80;21542;-43
2021/08/02 03:28:25;;;;;;;14.07;9.68;;;;;;;23.89;68.09;98519.73;1775713;80;21008;-43
2021/08/02 03:30:56;;;;;;;12.88;8.93;;;;;;;23.94;67.48;98519.09;1763770;80;21131;-43
2021/08/02 03:33:36;;;;;;;12.07;9.33;;;;;;;23.93;67.14;98521.09;1781386;80;21019;-43
2021/08/02 03:36:09;;;;;;;12.37;9.25;;;;;;;23.94;66.95;98513.56;1771422;80;20958;-43
2021/08/02 03:38:36;;;;;;;14.38;9.18;;;;;;;23.93;67.10;98499.56;1776106;80;21013;-43
2021/08/02 03:41:06;;;;;;;12.23;8.50;;;;;;;23.98;66.95;98498.30;1776544;80;21535;-43
2021/08/02 03:43:34;;;;;;;12.90;8.70;;;;;;;24.08;66.80;98487.32;1752337;80;21078;-43
2021/08/02 03:46:04;;;;;;;9.83;8.27;;;;;;;24.17;66.55;98480.98;1771245;80;21029;-43
2021/08/02 03:48:31;;;;;;;12.28;9.70;;;;;;;24.19;66.85;98470.20;1780144;80;21398;-43
2021/08/02 03:50:59;;;;;;;12.85;9.65;;;;;;;24.25;67.08;98460.75;1776563;80;21551;-43
2021/08/02 03:53:25;;;;;;;13.43;9.00;;;;;;;24.33;67.36;98457.02;1778951;80;20994;-43
2021/08/02 03:55:52;;;;;;;13.75;9.38;;;;;;;24.40;67.32;98470.48;1763734;80;21101;-43
2021/08/02 03:58:19;;;;;;;13.80;10.58;;;;;;;24.49;67.39;98475.98;1752898;80;21024;-43
2021/08/02 04:00:45;;;;;;;14.93;11.38;;;;;;;24.55;67.39;98468.52;1749222;80;20938;-43
2021/08/02 04:03:12;;;;;;;13.15;10.48;;;;;;;24.54;67.47;98444.84;1773742;80;21038;-43
2021/08/02 04:05:39;;;;;;;15.00;11.55;;;;;;;24.55;67.63;98448.35;1768631;80;20974;-43
2021/08/02 04:08:49;;;;;;;15.23;11.00;;;;;;;24.60;67.76;98449.84;1786813;79;22695;-43
2021/08/02 04:11:16;;;;;;;17.57;11.38;;;;;;;24.57;67.68;98446.65;1788244;80;20921;-43
2021/08/02 04:13:43;;;;;;;18.95;11.57;;;;;;;24.61;67.65;98438.91;1778422;80;21909;-43
2021/08/02 04:16:10;;;;;;;12.95;10.93;;;;;;;24.65;67.55;98436.70;1784245;80;21504;-42
2021/08/02 04:18:36;;;;;;;13.88;11.53;;;;;;;24.66;67.55;98430.55;1782446;80;20964;-43
2021/08/02 04:21:03;;;;;;;19.30;12.53;;;;;;;24.67;67.48;98431.47;1775682;80;20926;-42
2021/08/02 04:23:30;;;;;;;14.50;11.22;;;;;;;24.66;67.36;98429.93;1778413;80;21272;-42
2021/08/02 04:25:57;;;;;;;14.35;10.58;;;;;;;24.63;67.54;98422.58;1787987;80;21173;-43
2021/08/02 04:28:23;;;;;;;14.18;11.08;;;;;;;24.68;67.49;98408.67;1764297;80;20930;-43
2021/08/02 04:30:50;;;;;;;18.17;12.33;;;;;;;24.71;67.35;98392.47;1765768;80;21503;-43
2021/08/02 04:33:18;;;;;;;14.03;11.10;;;;;;;24.73;67.31;98404.47;1763502;80;21021;-43
2021/08/02 04:35:45;;;;;;;16.42;11.70;;;;;;;24.68;67.20;98410.83;1774760;80;21554;-43
2021/08/02 04:38:12;;;;;;;14.93;10.65;;;;;;;24.68;67.28;98416.37;1779126;80;21024;-42
2021/08/02 04:40:39;;;;;;;14.80;10.72;;;;;;;24.67;67.37;98418.99;1785991;80;21072;-43
2021/08/02 04:43:05;;;;;;;13.40;10.25;;;;;;;24.73;67.22;98439.12;1757067;81;21467;-43
2021/08/02 04:45:32;;;;;;;13.38;9.83;;;;;;;24.69;67.24;98412.34;1769260;80;21067;-43
2021/08/02 04:48:00;;;;;;;14.70;10.68;;;;;;;24.69;67.45;98408.17;1787549;80;21087;-43
2021/08/02 04:50:28;;;;;;;15.65;11.08;;;;;;;24.71;67.72;98411.09;1762933;80;21132;-42
2021/08/02 04:52:55;;;;;;;13.05;10.00;;;;;;;24.74;67.81;98399.08;1756727;81;21007;-42
2021/08/02 04:55:22;;;;;;;16.45;10.60;;;;;;;24.78;67.68;98396.88;1763336;80;20960;-43
2021/08/02 04:57:48;;;;;;;16.73;10.03;;;;;;;24.82;67.71;98384.96;1779164;79;21068;-43
2021/08/02 05:00:16;;;;;;;16.05;10.70;;;;;;;24.83;67.77;98387.88;1708733;83;21013;-43
2021/08/02 05:02:42;;;;;;;14.15;11.05;;;;;;;24.84;67.70;98374.14;1721597;83;21202;-43
2021/08/02 05:05:10;;;;;;;16.32;10.43;;;;;;;24.85;67.80;98375.67;1711445;82;21021;-43
2021/08/02 05:07:37;;;;;;;15.32;10.45;;;;;;;24.85;67.74;98383.38;1748904;81;20969;-43
2021/08/02 05:10:05;;;;;;;13.13;10.43;;;;;;;24.91;67.73;98389.05;1766773;80;21015;-43
2021/08/02 05:12:31;;;;;;;15.38;9.83;;;;;;;24.93;67.51;98394.23;1752852;80;21510;-42
2021/08/02 05:15:06;;;;;;;14.63;10.13;;;;;;;24.92;67.45;98395.50;1760009;80;21125;-43
2021/08/02 05:17:33;;;;;;;12.45;10.50;;;;;;;24.93;67.44;98396.27;1774215;80;21831;-42
2021/08/02 05:20:01;;;;;;;14.20;10.23;;;;;;;24.94;67.51;98388.84;1781780;80;21044;-42
2021/08/02 05:22:28;;;;;;;10.43;9.35;;;;;;;24.99;67.65;98391.56;1775062;79;21503;-42
2021/08/02 05:24:55;;;;;;;13.38;11.05;;;;;;;25.07;67.45;98394.88;1765570;79;21041;-43
2021/08/02 05:27:21;;;;;;;14.85;10.58;;;;;;;25.17;67.38;98401.69;1793259;79;21952;-43
2021/08/02 05:29:48;;;;;;;13.20;10.82;;;;;;;25.20;67.26;98405.64;1780286;79;20973;-43
2021/08/02 05:32:15;;;;;;;13.50;11.73;;;;;;;25.23;67.01;98405.30;1778287;79;21016;-43
2021/08/02 05:34:43;;;;;;;12.95;11.57;;;;;;;25.22;66.95;98408.72;1775873;79;21028;-43
2021/08/02 05:37:10;;;;;;;13.35;11.08;;;;;;;25.24;66.73;98408.21;1757798;80;21049;-43
2021/08/02 05:39:37;;;;;;;15.23;10.88;;;;;;;25.26;66.79;98409.27;1769099;80;21126;-42
2021/08/02 05:42:06;;;;;;;14.75;11.73;;;;;;;25.31;67.06;98416.92;1770558;80;21016;-43
2021/08/02 05:44:32;;;;;;;15.78;11.68;;;;;;;25.36;67.36;98416.86;1777714;80;21077;-43
2021/08/02 05:47:00;;;;;;;15.65;11.93;;;;;;;25.42;67.42;98414.29;1779505;80;21482;-42
2021/08/02 05:49:27;;;;;;;15.25;10.43;;;;;;;25.49;66.86;98405.58;1774023;80;21037;-43
2021/08/02 05:51:57;;;;;;;16.23;11.33;;;;;;;25.52;67.25;98412.92;1782604;79;21815;-43
2021/08/02 05:54:24;;;;;;;14.07;11.12;;;;;;;25.65;67.44;98413.27;1772785;80;21036;-42
2021/08/02 05:56:50;;;;;;;15.43;12.00;;;;;;;25.70;66.45;98408.41;1781772;80;21519;-42
2021/08/02 05:59:17;;;;;;;16.35;11.80;;;;;;;25.67;66.91;98407.35;1772732;80;21057;-43
2021/08/02 06:01:45;;;;;;;14.95;12.78;;;;;;;25.73;66.72;98410.20;1782623;80;21060;-43
2021/08/02 06:04:11;;;;;;;19.52;11.90;;;;;;;25.74;67.00;98399.25;1784444;80;21584;-42
2021/08/02 06:06:38;;;;;;;14.20;12.23;;;;;;;25.80;66.93;98404.26;1779942;80;20965;-43
2021/08/02 06:09:05;;;;;;;17.55;12.95;;;;;;;25.90;66.62;98409.81;1772051;80;21004;-43
2021/08/02 06:11:32;;;;;;;19.02;13.45;;;;;;;25.97;66.50;98405.22;1772208;80;20999;-42
2021/08/02 06:13:59;;;;;;;15.88;13.00;;;;;;;25.99;66.15;98415.23;1773352;80;21037;-43
2021/08/02 06:16:25;;;;;;;16.93;13.18;;;;;;;25.98;66.35;98413.70;1759857;80;21811;-42
2021/08/02 06:18:52;;;;;;;18.23;12.68;;;;;;;25.96;66.49;98414.17;1732654;82;21583;-42
2021/08/02 06:21:19;;;;;;;15.48;12.47;;;;;;;25.98;66.72;98411.53;1705259;84;20945;-42
2021/08/02 06:23:46;;;;;;;17.90;13.58;;;;;;;26.02;66.38;98412.09;1768212;80;21045;-42
2021/08/02 06:26:12;;;;;;;15.70;12.55;;;;;;;26.07;66.02;98407.23;1773711;80;21033;-42
2021/08/02 06:28:54;;;;;;;16.20;13.13;;;;;;;26.11;66.30;98407.16;1769742;80;21082;-43
2021/08/02 06:31:19;;;;;;;21.85;14.28;;;;;;;26.14;65.29;98400.61;1750801;80;20961;-42
2021/08/02 06:33:46;;;;;;;17.75;13.13;;;;;;;26.15;65.08;98394.43;1747514;80;21476;-42
2021/08/02 06:36:12;;;;;;;15.20;13.13;;;;;;;26.19;65.37;98399.91;1756629;80;21040;-42
2021/08/02 06:38:39;;;;;;;19.48;12.98;;;;;;;26.27;65.24;98396.89;1765026;80;21037;-42
2021/08/02 06:41:06;;;;;;;15.93;12.85;;;;;;;26.34;64.78;98400.62;1759059;80;21826;-43
2021/08/02 06:43:33;;;;;;;15.90;12.88;;;;;;;26.44;64.46;98400.45;1749389;80;20966;-43
2021/08/02 06:46:00;;;;;;;18.23;13.48;;;;;;;26.51;64.06;98404.20;1744906;80;20923;-43
2021/08/02 06:48:27;;;;;;;13.90;12.43;;;;;;;26.59;63.73;98408.06;1767491;80;20993;-42
2021/08/02 06:50:54;;;;;;;14.95;12.40;;;;;;;26.71;63.95;98405.54;1754063;80;21516;-42
2021/08/02 06:53:20;;;;;;;16.70;11.85;;;;;;;26.82;62.96;98409.17;1749826;80;21239;-42
2021/08/02 06:55:50;;;;;;;15.18;11.78;;;;;;;26.93;61.88;98405.75;1752996;80;20966;-42
2021/08/02 06:58:16;;;;;;;;;;;;;;;26.97;61.01;98418.04;1767298;80;21041;-43
2021/08/02 07:00:43;;;;;;;13.38;11.95;;;;;;;26.96;60.80;98402.00;1773247;80;20140;-43
2021/08/02 07:03:10;;;;;;;15.38;11.20;;;;;;;26.89;61.34;98410.02;1770861;80;21041;-42
2021/08/02 07:05:37;;;;;;;16.80;12.03;;;;;;;26.97;60.98;98408.30;1748854;80;21110;-42
2021/08/02 07:08:04;;;;;;;13.78;11.70;;;;;;;27.04;60.54;98402.30;1763918;80;21488;-42
2021/08/02 07:10:31;;;;;;;16.85;11.70;;;;;;;27.10;59.82;98405.28;1761003;80;21014;-42
2021/08/02 07:12:58;;;;;;;12.53;11.00;;;;;;;27.15;60.08;98414.30;1762291;80;21635;-42
2021/08/02 07:15:25;;;;;;;13.80;11.70;;;;;;;27.23;59.46;98416.75;1748950;80;21031;-42
2021/08/02 07:17:52;;;;;;;13.08;10.48;;;;;;;27.37;59.13;98417.09;1772654;80;21911;-42
2021/08/02 07:20:19;;;;;;;15.10;10.48;;;;;;;27.47;58.29;98418.42;1773339;80;20947;-42
2021/08/02 07:22:46;;;;;;;14.65;10.58;;;;;;;27.59;57.68;98428.41;1773193;80;21006;-42
2021/08/02 07:25:13;;;;;;;11.85;10.45;;;;;;;27.69;56.94;98413.03;1773364;80;21082;-42
2021/08/02 07:27:41;;;;;;;13.70;9.60;;;;;;;27.76;56.26;98411.15;1773542;80;21004;-42
2021/08/02 07:30:09;;;;;;;11.78;10.00;;;;;;;27.82;55.52;98411.95;1736773;82;21935;-43
2021/08/02 07:32:37;;;;;;;11.50;9.73;;;;;;;27.90;56.33;98419.95;1773817;80;21564;-42
2021/08/02 07:35:05;;;;;;;12.70;9.20;;;;;;;28.01;55.10;98427.60;1774033;80;21016;-42
2021/08/02 07:37:32;;;;;;;10.85;9.05;;;;;;;28.13;54.94;98422.22;1773820;80;21547;-42
2021/08/02 07:39:59;;;;;;;13.68;9.03;;;;;;;28.24;54.09;98435.44;1773972;80;21013;-42
2021/08/02 07:42:26;;;;;;;11.25;7.58;;;;;;;28.33;54.29;98426.84;1761243;80;21134;-42
2021/08/02 07:44:53;;;;;;;13.32;8.18;;;;;;;28.43;51.71;98426.75;1741598;82;21588;-42
2021/08/02 07:47:19;;;;;;;12.75;7.45;;;;;;;28.58;52.48;98431.48;1741665;82;21022;-42
2021/08/02 07:49:46;;;;;;;12.23;6.87;;;;;;;28.69;48.32;98439.88;1741836;82;21024;-42
2021/08/02 07:52:13;;;;;;;11.28;7.22;;;;;;;28.76;48.38;98439.39;1741591;82;21571;-42
2021/08/02 07:54:39;;;;;;;12.37;7.55;;;;;;;28.83;48.74;98435.36;1741645;82;21095;-42
2021/08/02 07:57:06;;;;;;;9.78;7.10;;;;;;;28.87;47.73;98437.26;1762952;80;20961;-42
2021/08/02 07:59:34;;;;;;;11.93;7.20;;;;;;;28.89;47.97;98442.48;1763614;81;21456;-42
2021/08/02 08:02:01;;;;;;;8.48;7.08;;;;;;;28.90;47.79;98441.19;1766317;80;20965;-42
2021/08/02 08:04:27;;;;;;;15.08;7.90;;;;;;;28.97;49.26;98439.17;1772052;80;20962;-42
2021/08/02 08:06:54;;;;;;;12.30;6.97;;;;;;;29.00;48.44;98443.09;1743134;81;21208;-42
2021/08/02 08:09:21;;;;;;;12.03;7.47;;;;;;;29.04;48.17;98448.45;1745130;82;21023;-42
2021/08/02 08:11:49;;;;;;;12.00;7.40;;;;;;;29.06;48.16;98452.23;1747137;82;21701;-42
2021/08/02 08:14:15;;;;;;;8.38;6.90;;;;;;;29.07;48.07;98443.23;1747612;82;21040;-42
2021/08/02 08:16:42;;;;;;;13.18;6.60;;;;;;;28.80;48.99;98410.64;1748452;82;21095;-42
2021/08/02 08:19:09;;;;;;;12.15;6.85;;;;;;;29.07;49.53;98436.25;1710494;83;21078;-42
2021/08/02 08:21:36;;;;;;;8.23;6.53;;;;;;;29.14;48.41;98453.91;1748145;81;20893;-42
2021/08/02 08:24:06;;;;;;;10.98;6.87;;;;;;;29.23;49.07;98462.02;1710059;83;21094;-42
2021/08/02 08:26:35;;;;;;;8.70;5.87;;;;;;;29.30;48.17;98453.13;1710377;83;21030;-42
2021/08/02 08:29:03;;;;;;;12.80;5.40;;;;;;;29.33;45.44;98450.76;1713408;81;21574;-42
2021/08/02 08:31:32;;;;;;;7.28;5.37;;;;;;;29.34;46.85;98455.81;1742494;82;21040;-42
2021/08/02 08:33:58;;;;;;;11.45;5.50;;;;;;;29.38;46.30;98455.58;1748404;82;20953;-42
2021/08/02 08:36:26;;;;;;;10.50;5.40;;;;;;;29.44;45.38;98466.09;1747858;81;20964;-42
2021/08/02 08:38:53;;;;;;;12.07;5.83;;;;;;;29.45;45.87;98457.84;1748356;82;21064;-42
2021/08/02 08:41:20;;;;;;;9.15;5.17;;;;;;;29.48;47.03;98467.24;1728425;81;21036;-42
2021/08/02 08:43:51;;;;;;;8.73;5.45;;;;;;;29.53;46.25;98474.86;1747789;82;21146;-42
2021/08/02 08:46:20;;;;;;;6.70;5.25;;;;;;;29.61;45.43;98469.63;1719981;82;20924;-42
2021/08/02 08:48:48;;;;;;;11.30;5.20;;;;;;;29.66;45.83;98469.50;1716852;83;21294;-42
2021/08/02 08:51:15;;;;;;;7.20;4.97;;;;;;;29.66;45.91;98474.45;1691628;83;21037;-42
2021/08/02 08:53:43;;;;;;;7.00;5.03;;;;;;;29.69;46.44;98470.63;1743618;82;21111;-42
2021/08/02 08:56:15;;;;;;;9.68;4.83;;;;;;;29.76;45.95;98468.72;1719295;83;21133;-43
2021/08/02 08:58:44;;;;;;;8.38;4.90;;;;;;;29.83;44.65;98459.03;1721964;82;20963;-42
2021/08/02 09:01:10;;;;;;;11.10;5.58;;;;;;;29.90;45.57;98475.95;1748444;82;21021;-42
2021/08/02 09:03:37;;;;;;;8.90;5.58;;;;;;;29.94;43.90;98479.23;1748713;82;20965;-42
2021/08/02 09:06:05;;;;;;;8.30;4.95;;;;;;;29.95;44.11;98469.59;1748815;82;21052;-43
2021/08/02 09:08:43;;;;;;;8.88;5.53;;;;;;;29.95;45.01;98468.95;1749473;82;21106;-43
2021/08/02 09:11:16;;;;;;;8.85;5.17;;;;;;;29.99;43.89;98475.66;1751044;82;20973;-43
2021/08/02 09:13:43;;;;;;;7.60;4.78;;;;;;;30.04;43.86;98477.69;1751002;82;21049;-42
2021/08/02 09:16:25;;;;;;;6.83;4.60;;;;;;;30.05;43.88;98487.59;1751191;81;20996;-43
2021/08/02 09:19:03;;;;;;;8.00;4.90;;;;;;;29.97;43.70;98483.79;1713460;83;21053;-43
2021/08/02 09:21:45;;;;;;;5.72;3.98;;;;;;;29.82;44.67;98492.46;1751041;81;21496;-43
2021/08/02 09:24:12;;;;;;;7.62;4.37;;;;;;;29.65;44.53;98491.08;1751049;82;20945;-42
2021/08/02 09:26:40;;;;;;;7.97;4.62;;;;;;;29.51;44.75;98501.89;1744326;81;20961;-42
2021/08/02 09:29:11;;;;;;;7.53;4.80;;;;;;;29.42;46.09;98504.95;1749714;81;21036;-42
2021/08/02 09:31:40;;;;;;;9.20;4.72;;;;;;;29.40;45.63;98499.72;1714243;83;21109;-42
2021/08/02 09:34:08;;;;;;;7.40;4.45;;;;;;;29.38;45.81;98504.44;1751389;82;21804;-42
2021/08/02 09:36:43;;;;;;;9.00;4.33;;;;;;;29.41;46.92;98504.81;1751205;82;20972;-43
2021/08/02 09:39:14;;;;;;;10.08;5.10;;;;;;;29.50;46.97;98503.78;1750317;82;20896;-42
2021/08/02 09:41:44;;;;;;;7.42;4.50;;;;;;;29.63;46.10;98508.97;1746289;82;21028;-43
2021/08/02 09:44:24;;;;;;;;;;;;;;;29.74;46.43;98510.36;1752072;82;21060;-43
2021/08/02 09:47:03;;;;;;;10.60;4.90;;;;;;;29.84;46.03;98515.05;1713983;83;21114;-43
2021/08/02 09:49:45;;;;;;;8.10;4.37;;;;;;;29.78;45.85;98518.48;1720006;83;20937;-42
2021/08/02 09:52:12;;;;;;;8.75;4.53;;;;;;;29.79;46.58;98519.38;1719344;83;21056;-42
2021/08/02 09:54:39;;;;;;;8.60;4.33;;;;;;;29.80;45.63;98511.12;1680644;83;21047;-42
2021/08/02 09:57:06;;;;;;;9.65;4.10;;;;;;;29.87;45.15;98514.02;1750820;82;21045;-43
2021/08/02 09:59:34;;;;;;;7.10;4.12;;;;;;;29.93;45.43;98519.62;1750687;82;21138;-43
2021/08/02 10:02:00;;;;;;;6.35;4.20;;;;;;;30.00;45.26;98522.67;1751412;81;21025;-42
2021/08/02 10:04:32;;;;;;;9.95;4.10;;;;;;;30.09;44.76;98530.02;1752069;81;21016;-42
2021/08/02 10:07:01;;;;;;;8.90;4.72;;;;;;;30.12;44.29;98523.39;1721354;82;21030;-42
2021/08/02 10:09:28;;;;;;;8.88;4.10;;;;;;;30.20;44.58;98529.99;1747064;82;21033;-43
2021/08/02 10:11:56;;;;;;;8.83;4.37;;;;;;;30.28;43.46;98539.36;1705554;84;21141;-43
2021/08/02 10:14:32;;;;;;;5.97;3.90;;;;;;;30.31;43.28;98529.94;1706232;84;21598;-43
2021/08/02 10:17:10;;;;;;;7.45;4.37;;;;;;;30.28;43.31;98526.02;1679020;84;21060;-43
2021/08/02 10:19:47;;;;;;;7.20;4.10;;;;;;;30.20;43.32;98525.80;1652743;86;21105;-43
2021/08/02 10:22:14;;;;;;;11.20;4.75;;;;;;;30.17;43.60;98532.41;1714069;82;21064;-42
2021/08/02 10:24:48;;;;;;;8.58;4.47;;;;;;;30.24;44.44;98533.28;1742169;82;21091;-43
2021/08/02 10:27:28;;;;;;;7.30;4.10;;;;;;;30.36;43.98;98540.34;1742790;82;21562;-43
2021/08/02 10:29:56;;;;;;;9.48;4.28;;;;;;;30.51;43.33;98527.48;1741797;82;21008;-42
2021/08/02 10:32:24;;;;;;;7.12;4.17;;;;;;;30.67;44.19;98532.88;1742785;82;21005;-43
2021/08/02 10:34:52;;;;;;;6.22;3.75;;;;;;;30.84;43.50;98534.97;1743418;82;21084;-43
2021/08/02 10:37:35;;;;;;;6.33;3.87;;;;;;;30.91;42.94;98530.20;1743400;82;21145;-43
2021/08/02 10:40:08;;;;;;;7.22;4.05;;;;;;;30.93;43.00;98542.42;1723917;82;21049;-43
2021/08/02 10:42:50;;;;;;;5.67;3.77;;;;;;;30.92;43.12;98540.13;1743259;82;20992;-43
2021/08/02 10:45:31;;;;;;;7.00;4.10;;;;;;;30.84;42.55;98524.51;1731508;82;21072;-42
2021/08/02 10:47:58;;;;;;;6.70;3.80;;;;;;;30.70;42.33;98536.80;1734382;82;20942;-42
2021/08/02 10:50:28;;;;;;;4.92;3.50;;;;;;;30.58;40.93;98537.50;1743041;82;21853;-43
2021/08/02 10:52:54;;;;;;;7.75;3.50;;;;;;;30.42;41.56;98542.49;1743195;82;20938;-43
2021/08/02 10:55:21;;;;;;;5.97;3.60;;;;;;;30.27;42.36;98549.02;1707230;84;21615;-43
2021/08/02 10:57:59;;;;;;;7.37;4.15;;;;;;;30.17;42.85;98550.58;1705884;84;21042;-43
2021/08/02 11:00:27;;;;;;;9.43;3.92;;;;;;;30.15;42.97;98544.75;1738653;82;20998;-43
2021/08/02 11:02:56;;;;;;;5.67;3.60;;;;;;;30.16;43.67;98550.47;1699288;84;21154;-42
2021/08/02 11:05:23;;;;;;;7.53;4.15;;;;;;;30.33;44.43;98537.19;1693731;84;20993;-43
2021/08/02 11:07:50;;;;;;;9.88;4.15;;;;;;;30.58;43.99;98531.91;1743218;82;21028;-43
2021/08/02 11:10:17;;;;;;;7.62;4.20;;;;;;;30.74;43.07;98537.95;1743302;82;21005;-43
2021/08/02 11:12:47;;;;;;;8.08;3.70;;;;;;;30.82;42.31;98541.71;1743226;82;21029;-42
2021/08/02 11:15:15;;;;;;;10.05;4.03;;;;;;;30.72;42.40;98535.66;1737312;82;21155;-43
2021/08/02 11:17:52;;;;;;;5.20;3.70;;;;;;;30.57;43.13;98531.02;1742936;82;20972;-43
2021/08/02 11:20:19;;;;;;;6.17;3.75;;;;;;;30.68;44.16;98534.41;1743258;82;21081;-42
2021/08/02 11:22:54;;;;;;;5.70;3.85;;;;;;;30.92;44.12;98535.93;1743001;82;21479;-43
2021/08/02 11:25:27;;;;;;;7.80;3.75;;;;;;;31.14;42.58;98536.44;1742703;82;21127;-42
2021/08/02 11:27:55;;;;;;;5.90;3.60;;;;;;;31.20;42.06;98537.17;1741970;82;21086;-43
2021/08/02 11:30:23;;;;;;;8.55;4.05;;;;;;;31.09;41.53;98554.80;1743675;82;21027;-42
2021/08/02 11:32:49;;;;;;;6.95;3.72;;;;;;;30.98;42.58;98543.00;1707460;84;20959;-43
2021/08/02 11:35:17;;;;;;;9.55;3.90;;;;;;;30.92;42.81;98520.53;1707794;84;21039;-43
2021/08/02 11:37:51;;;;;;;5.90;4.03;;;;;;;30.89;42.25;98511.75;1707590;84;21447;-43